Time;durP1;ratioP1;P1;durP2;ratioP2;P2;SDS_P1;SDS_P2;PMS_P1;PMS_P2;Temp;Humidity;BMP_temperature;BMP_pressure;BME280_temperature;BME280_humidity;BME280_pressure;Samples;Min_cycle;Max_cycle;Signal;HPM_P1;HPM_P2
2020/12/16 00:00:47;;;;;;;21.88;6.47;;;;;;;;;;4807086;29;20062;-85
2020/12/16 00:03:13;;;;;;;19.88;6.82;;;;;;;;;;4807388;29;20027;-85
2020/12/16 00:05:40;;;;;;;14.73;5.78;;;;;;;;;;4806958;29;20034;-85
2020/12/16 00:08:06;;;;;;;26.95;8.25;;;;;;;;;;4808470;29;20084;-84
2020/12/16 00:10:32;;;;;;;23.50;7.05;;;;;;;;;;4807374;29;20033;-84
2020/12/16 00:12:58;;;;;;;25.25;7.55;;;;;;;;;;4806844;29;20565;-78
2020/12/16 00:15:26;;;;;;;22.75;7.50;;;;;;;;;;4806752;29;20031;-85
2020/12/16 00:17:52;;;;;;;26.75;6.72;;;;;;;;;;4806878;29;20031;-85
2020/12/16 00:20:19;;;;;;;24.20;7.18;;;;;;;;;;4806723;29;20042;-84
2020/12/16 00:22:45;;;;;;;29.75;7.75;;;;;;;;;;4806941;29;20064;-86
2020/12/16 00:25:11;;;;;;;25.13;7.10;;;;;;;;;;4806668;29;20047;-85
2020/12/16 00:27:38;;;;;;;20.83;7.00;;;;;;;;;;4806660;29;20031;-84
2020/12/16 00:30:05;;;;;;;18.92;6.75;;;;;;;;;;4807944;29;20031;-84
2020/12/16 00:32:32;;;;;;;16.50;6.30;;;;;;;;;;4806626;29;20027;-84
2020/12/16 00:34:58;;;;;;;18.40;7.10;;;;;;;;;;4806663;29;20126;-85
2020/12/16 00:37:24;;;;;;;19.85;6.78;;;;;;;;;;4806682;29;20035;-87
2020/12/16 00:39:51;;;;;;;20.67;6.93;;;;;;;;;;4807504;29;20601;-84
2020/12/16 00:42:17;;;;;;;25.80;7.72;;;;;;;;;;4807583;29;20042;-79
2020/12/16 00:44:43;;;;;;;24.95;7.78;;;;;;;;;;4807387;29;20046;-81
2020/12/16 00:47:09;;;;;;;19.73;7.50;;;;;;;;;;4806360;29;20366;-86
2020/12/16 00:49:35;;;;;;;26.65;6.78;;;;;;;;;;4806333;29;20417;-85
2020/12/16 00:52:02;;;;;;;22.35;6.85;;;;;;;;;;4806187;29;20037;-86
2020/12/16 00:54:28;;;;;;;25.40;7.57;;;;;;;;;;4805467;29;20039;-80
2020/12/16 00:56:54;;;;;;;22.50;7.03;;;;;;;;;;4806212;29;20500;-86
2020/12/16 00:59:21;;;;;;;19.25;7.00;;;;;;;;;;4806243;29;20037;-85
2020/12/16 01:01:47;;;;;;;17.88;5.57;;;;;;;;;;4807394;29;20065;-84
2020/12/16 01:04:13;;;;;;;25.00;7.78;;;;;;;;;;4806073;29;20047;-86
2020/12/16 01:06:40;;;;;;;21.88;6.55;;;;;;;;;;4807367;29;20027;-85
2020/12/16 01:09:06;;;;;;;25.00;7.65;;;;;;;;;;4806192;29;20062;-85
2020/12/16 01:11:36;;;;;;;20.13;7.00;;;;;;;;;;4807050;29;20092;-84
2020/12/16 01:14:04;;;;;;;20.20;7.18;;;;;;;;;;4805959;29;20501;-82
2020/12/16 01:16:36;;;;;;;28.33;7.75;;;;;;;;;;4805932;29;20473;-86
2020/12/16 01:19:09;;;;;;;20.38;6.88;;;;;;;;;;4805991;29;20033;-86
2020/12/16 01:21:36;;;;;;;20.90;6.88;;;;;;;;;;4805904;29;20397;-86
2020/12/16 01:24:03;;;;;;;25.92;7.88;;;;;;;;;;4806794;29;20046;-86
2020/12/16 01:26:36;;;;;;;22.20;7.95;;;;;;;;;;4805988;29;20035;-80
2020/12/16 01:29:02;;;;;;;27.35;7.97;;;;;;;;;;4807315;29;20072;-79
2020/12/16 01:31:35;;;;;;;31.88;8.18;;;;;;;;;;4805745;29;20074;-80
2020/12/16 01:34:02;;;;;;;24.77;8.95;;;;;;;;;;4805723;29;20473;-84
2020/12/16 01:36:28;;;;;;;25.05;6.90;;;;;;;;;;4805447;29;20042;-79
2020/12/16 01:38:54;;;;;;;26.00;7.60;;;;;;;;;;4805570;29;20027;-86
2020/12/16 01:41:20;;;;;;;20.88;6.90;;;;;;;;;;4805536;29;20031;-85
2020/12/16 01:43:47;;;;;;;20.70;6.70;;;;;;;;;;4806810;29;20034;-84
2020/12/16 01:46:13;;;;;;;23.15;6.10;;;;;;;;;;4806776;29;20035;-86
2020/12/16 01:48:39;;;;;;;21.65;7.35;;;;;;;;;;4805334;29;20055;-84
2020/12/16 01:51:05;;;;;;;22.52;6.93;;;;;;;;;;4807024;29;20035;-84
2020/12/16 01:53:33;;;;;;;21.38;6.78;;;;;;;;;;4808006;29;20083;-86
2020/12/16 01:56:00;;;;;;;23.02;7.18;;;;;;;;;;4810772;29;20037;-84
2020/12/16 01:58:28;;;;;;;20.55;8.23;;;;;;;;;;4808197;29;20114;-85
2020/12/16 02:00:54;;;;;;;21.67;6.90;;;;;;;;;;4805225;29;20155;-83
2020/12/16 02:03:22;;;;;;;26.75;8.27;;;;;;;;;;4806120;29;20066;-85
2020/12/16 02:05:50;;;;;;;22.88;7.97;;;;;;;;;;4804816;29;20464;-82
2020/12/16 02:08:16;;;;;;;27.38;7.55;;;;;;;;;;4805061;29;20099;-85
2020/12/16 02:10:42;;;;;;;24.45;7.43;;;;;;;;;;4805044;29;20038;-85
2020/12/16 02:13:08;;;;;;;25.20;7.32;;;;;;;;;;4806257;29;20044;-84
2020/12/16 02:15:35;;;;;;;22.08;7.63;;;;;;;;;;4805206;29;20035;-86
2020/12/16 02:18:01;;;;;;;23.33;7.90;;;;;;;;;;4805964;29;20031;-86
2020/12/16 02:20:27;;;;;;;30.77;8.93;;;;;;;;;;4806107;29;20405;-86
2020/12/16 02:22:55;;;;;;;25.40;7.78;;;;;;;;;;4806266;29;20581;-84
2020/12/16 02:25:22;;;;;;;23.35;7.13;;;;;;;;;;4804747;29;20038;-85
2020/12/16 02:27:48;;;;;;;24.20;8.23;;;;;;;;;;4805905;29;20059;-81
2020/12/16 02:30:14;;;;;;;24.85;6.47;;;;;;;;;;4804678;29;20374;-85
2020/12/16 02:32:41;;;;;;;23.80;7.85;;;;;;;;;;4805985;29;20031;-79
2020/12/16 02:35:09;;;;;;;23.73;7.13;;;;;;;;;;4805924;29;20208;-86
2020/12/16 02:37:35;;;;;;;26.85;7.90;;;;;;;;;;4805920;29;20086;-85
2020/12/16 02:40:02;;;;;;;26.85;8.38;;;;;;;;;;4806104;29;20039;-85
2020/12/16 02:42:29;;;;;;;23.42;7.72;;;;;;;;;;4804816;29;20035;-83
2020/12/16 02:44:59;;;;;;;21.50;6.78;;;;;;;;;;4805866;29;20049;-86
2020/12/16 02:47:25;;;;;;;22.08;7.43;;;;;;;;;;4805775;29;20509;-86
2020/12/16 02:49:52;;;;;;;24.80;8.50;;;;;;;;;;4804530;29;20065;-85
2020/12/16 02:52:18;;;;;;;16.45;5.72;;;;;;;;;;4806036;29;20035;-83
2020/12/16 02:54:44;;;;;;;25.00;8.05;;;;;;;;;;4805720;29;20092;-84
2020/12/16 02:57:11;;;;;;;25.08;7.32;;;;;;;;;;4804705;29;20043;-85
2020/12/16 02:59:37;;;;;;;24.88;6.82;;;;;;;;;;4805896;29;20035;-85
2020/12/16 03:02:03;;;;;;;19.67;7.05;;;;;;;;;;4804433;29;20117;-83
2020/12/16 03:04:30;;;;;;;27.13;7.90;;;;;;;;;;4804496;29;20043;-84
2020/12/16 03:06:57;;;;;;;24.20;7.40;;;;;;;;;;4805612;29;20438;-77
2020/12/16 03:09:25;;;;;;;21.58;7.07;;;;;;;;;;4804553;29;20041;-86
2020/12/16 03:11:52;;;;;;;25.77;7.35;;;;;;;;;;4804498;29;20041;-85
2020/12/16 03:14:18;;;;;;;24.92;7.97;;;;;;;;;;4805817;29;20508;-80
2020/12/16 03:16:44;;;;;;;19.45;6.40;;;;;;;;;;4805893;29;20042;-86
2020/12/16 03:19:11;;;;;;;22.33;7.45;;;;;;;;;;4807522;29;20129;-85
2020/12/16 03:21:37;;;;;;;20.50;7.15;;;;;;;;;;4809113;29;20496;-78
2020/12/16 03:24:03;;;;;;;22.70;6.82;;;;;;;;;;4807772;29;20034;-86
2020/12/16 03:26:30;;;;;;;26.05;7.20;;;;;;;;;;4807731;29;20038;-79
2020/12/16 03:28:56;;;;;;;18.20;6.15;;;;;;;;;;4808992;29;20031;-85
2020/12/16 03:31:22;;;;;;;14.65;6.03;;;;;;;;;;4808913;29;20110;-78
2020/12/16 03:33:49;;;;;;;20.95;7.43;;;;;;;;;;4808958;29;20421;-80
2020/12/16 03:36:16;;;;;;;22.35;7.28;;;;;;;;;;4809026;29;20038;-86
2020/12/16 03:38:43;;;;;;;19.35;6.20;;;;;;;;;;4808902;29;20027;-85
2020/12/16 03:41:09;;;;;;;20.05;6.45;;;;;;;;;;4808821;29;20037;-86
2020/12/16 03:43:36;;;;;;;17.23;6.57;;;;;;;;;;4807547;29;20039;-81
2020/12/16 03:46:02;;;;;;;16.85;6.97;;;;;;;;;;4807516;29;20481;-86
2020/12/16 03:48:28;;;;;;;22.55;7.55;;;;;;;;;;4807067;29;20465;-85
2020/12/16 03:50:55;;;;;;;21.08;8.68;;;;;;;;;;4807551;29;20043;-86
2020/12/16 03:53:21;;;;;;;21.30;6.88;;;;;;;;;;4807407;29;20473;-86
2020/12/16 03:55:47;;;;;;;29.55;7.65;;;;;;;;;;4808773;29;20118;-78
2020/12/16 03:58:14;;;;;;;25.83;7.70;;;;;;;;;;4807288;29;20468;-86
2020/12/16 04:00:40;;;;;;;18.92;6.43;;;;;;;;;;4808372;29;20069;-85
2020/12/16 04:03:06;;;;;;;24.25;7.03;;;;;;;;;;4808429;29;20054;-83
2020/12/16 04:05:32;;;;;;;25.33;6.28;;;;;;;;;;4807137;29;20034;-82
2020/12/16 04:07:58;;;;;;;22.52;7.72;;;;;;;;;;4806910;29;20034;-77
2020/12/16 04:10:24;;;;;;;22.73;8.65;;;;;;;;;;4806977;29;20119;-86
2020/12/16 04:12:51;;;;;;;25.00;7.13;;;;;;;;;;4806691;29;20027;-86
2020/12/16 04:15:17;;;;;;;23.02;7.10;;;;;;;;;;4808270;29;20035;-85
2020/12/16 04:17:43;;;;;;;15.88;6.20;;;;;;;;;;4806800;29;20125;-77
2020/12/16 04:20:11;;;;;;;21.45;6.60;;;;;;;;;;4806619;29;20114;-83
2020/12/16 04:22:37;;;;;;;17.58;6.10;;;;;;;;;;4807191;29;20126;-86
2020/12/16 04:25:04;;;;;;;23.15;6.78;;;;;;;;;;4807771;29;20095;-85
2020/12/16 04:27:30;;;;;;;23.67;7.32;;;;;;;;;;4806791;29;20054;-85
2020/12/16 04:29:56;;;;;;;17.50;6.32;;;;;;;;;;4806672;29;20469;-86
2020/12/16 04:32:22;;;;;;;20.63;7.93;;;;;;;;;;4807979;29;20035;-79
2020/12/16 04:34:49;;;;;;;20.13;6.65;;;;;;;;;;4808059;29;20039;-84
2020/12/16 04:37:15;;;;;;;24.70;6.60;;;;;;;;;;4808001;29;20443;-85
2020/12/16 04:39:42;;;;;;;23.10;7.35;;;;;;;;;;4807545;29;20093;-85
2020/12/16 04:42:08;;;;;;;20.58;6.75;;;;;;;;;;4806707;29;20038;-84
2020/12/16 04:44:36;;;;;;;28.45;8.07;;;;;;;;;;4807774;29;20080;-78
2020/12/16 04:47:02;;;;;;;21.17;7.18;;;;;;;;;;4806503;29;20038;-84
2020/12/16 04:49:28;;;;;;;18.98;7.18;;;;;;;;;;4805973;29;20509;-83
2020/12/16 04:51:55;;;;;;;19.85;6.25;;;;;;;;;;4806338;29;20538;-86
2020/12/16 04:54:21;;;;;;;17.92;6.18;;;;;;;;;;4807601;29;20098;-81
2020/12/16 04:56:48;;;;;;;18.92;5.88;;;;;;;;;;4806223;29;20470;-78
2020/12/16 04:59:14;;;;;;;18.75;6.28;;;;;;;;;;4807410;29;20034;-82
2020/12/16 05:01:41;;;;;;;18.38;6.28;;;;;;;;;;4806132;29;20123;-79
2020/12/16 05:04:08;;;;;;;20.10;6.45;;;;;;;;;;4805819;29;20118;-87
2020/12/16 05:06:41;;;;;;;22.52;6.82;;;;;;;;;;4807410;29;20045;-85
2020/12/16 05:09:07;;;;;;;27.30;6.72;;;;;;;;;;4806234;29;20123;-85
2020/12/16 05:11:37;;;;;;;16.25;5.80;;;;;;;;;;4807385;29;20106;-77
2020/12/16 05:14:11;;;;;;;21.60;6.50;;;;;;;;;;4807219;29;20109;-85
2020/12/16 05:16:57;;;;;;;19.55;6.05;;;;;;;;;;4806105;29;20437;-86
2020/12/16 05:19:29;;;;;;;20.63;8.13;;;;;;;;;;4805955;29;20389;-79
2020/12/16 05:22:14;;;;;;;17.83;6.15;;;;;;;;;;4805801;29;20031;-78
2020/12/16 05:24:40;;;;;;;19.48;7.28;;;;;;;;;;4805910;29;20485;-85
2020/12/16 05:27:10;;;;;;;21.23;6.43;;;;;;;;;;4805852;29;20035;-85
2020/12/16 05:29:37;;;;;;;14.18;5.80;;;;;;;;;;4805498;29;20042;-85
2020/12/16 05:32:23;;;;;;;13.82;5.50;;;;;;;;;;4805688;29;20362;-85
2020/12/16 05:34:49;;;;;;;19.95;6.57;;;;;;;;;;4805664;29;20061;-87
2020/12/16 05:37:26;;;;;;;20.52;6.00;;;;;;;;;;4806847;29;20421;-82
2020/12/16 05:40:01;;;;;;;19.05;5.97;;;;;;;;;;4805288;29;20393;-80
2020/12/16 05:42:28;;;;;;;20.88;6.65;;;;;;;;;;4805472;29;20031;-85
2020/12/16 05:44:56;;;;;;;21.35;7.53;;;;;;;;;;4805202;29;20122;-83
2020/12/16 05:47:22;;;;;;;23.17;7.43;;;;;;;;;;4805332;29;20069;-79
2020/12/16 05:49:49;;;;;;;22.73;7.18;;;;;;;;;;4805154;29;20063;-79
2020/12/16 05:52:15;;;;;;;23.23;7.13;;;;;;;;;;4806613;29;20058;-86
2020/12/16 05:54:41;;;;;;;25.13;8.55;;;;;;;;;;4806727;29;20485;-85
2020/12/16 05:57:09;;;;;;;19.38;7.65;;;;;;;;;;4806472;29;20027;-86
2020/12/16 05:59:36;;;;;;;22.52;7.20;;;;;;;;;;4805350;29;20194;-84
2020/12/16 06:02:05;;;;;;;21.67;7.70;;;;;;;;;;4806456;29;20491;-78
2020/12/16 06:04:38;;;;;;;20.15;6.68;;;;;;;;;;4805149;29;20074;-85
2020/12/16 06:07:04;;;;;;;19.15;6.80;;;;;;;;;;4804949;29;20026;-84
2020/12/16 06:09:31;;;;;;;18.08;6.75;;;;;;;;;;4805092;29;20049;-83
2020/12/16 06:12:03;;;;;;;21.40;6.78;;;;;;;;;;4804985;29;20048;-82
2020/12/16 06:14:33;;;;;;;22.17;7.65;;;;;;;;;;4804937;29;20027;-83
2020/12/16 06:17:08;;;;;;;15.65;6.93;;;;;;;;;;4804921;29;20043;-82
2020/12/16 06:19:35;;;;;;;22.75;7.28;;;;;;;;;;4805084;29;20079;-83
2020/12/16 06:22:07;;;;;;;22.40;8.13;;;;;;;;;;4804713;29;20038;-83
2020/12/16 06:24:40;;;;;;;19.30;6.93;;;;;;;;;;4804852;29;20509;-85
2020/12/16 06:27:08;;;;;;;22.92;7.78;;;;;;;;;;4806154;29;20035;-86
2020/12/16 06:29:38;;;;;;;23.95;7.75;;;;;;;;;;4805105;29;20039;-79
2020/12/16 06:32:07;;;;;;;26.90;9.25;;;;;;;;;;4804533;29;20031;-79
2020/12/16 06:34:35;;;;;;;25.13;8.52;;;;;;;;;;4804787;29;20448;-84
2020/12/16 06:37:01;;;;;;;30.92;9.27;;;;;;;;;;4803891;29;20031;-85
2020/12/16 06:39:28;;;;;;;23.77;8.35;;;;;;;;;;4805644;29;20402;-84
2020/12/16 06:41:58;;;;;;;25.75;8.60;;;;;;;;;;4804371;29;20084;-85
2020/12/16 06:44:25;;;;;;;27.50;10.13;;;;;;;;;;4804146;29;20119;-84
2020/12/16 06:46:55;;;;;;;26.60;8.93;;;;;;;;;;4805416;29;20136;-74
2020/12/16 06:49:24;;;;;;;25.45;10.25;;;;;;;;;;4804131;29;20134;-74
2020/12/16 06:51:53;;;;;;;27.95;9.25;;;;;;;;;;4804617;29;20134;-75
2020/12/16 06:54:20;;;;;;;31.77;10.82;;;;;;;;;;4808015;29;20062;-75
2020/12/16 06:56:48;;;;;;;29.02;9.63;;;;;;;;;;4808250;29;20042;-75
2020/12/16 06:59:44;;;;;;;30.67;8.93;;;;;;;;;;4809450;29;20114;-75
2020/12/16 07:02:10;;;;;;;22.90;7.10;;;;;;;;;;4796564;29;20090;-76
2020/12/16 07:04:37;;;;;;;26.58;8.32;;;;;;;;;;4807830;29;20050;-77
2020/12/16 07:07:03;;;;;;;18.27;7.15;;;;;;;;;;4809348;29;20100;-74
2020/12/16 07:09:35;;;;;;;20.65;7.32;;;;;;;;;;4808052;29;20041;-74
2020/12/16 07:12:02;;;;;;;26.45;10.73;;;;;;;;;;4820829;29;20054;-74
2020/12/16 07:14:35;;;;;;;23.67;8.18;;;;;;;;;;4807782;29;20113;-74
2020/12/16 07:17:11;;;;;;;24.13;7.28;;;;;;;;;;4821655;29;20380;-75
2020/12/16 07:19:38;;;;;;;18.08;7.28;;;;;;;;;;4827241;29;20034;-73
2020/12/16 07:22:17;;;;;;;23.90;8.65;;;;;;;;;;4825853;29;20030;-75
2020/12/16 07:24:49;;;;;;;20.40;6.32;;;;;;;;;;4812492;29;20043;-74
2020/12/16 07:27:17;;;;;;;18.88;6.97;;;;;;;;;;4807310;29;20045;-74
2020/12/16 07:29:53;;;;;;;16.23;6.35;;;;;;;;;;4807560;29;20494;-74
2020/12/16 07:32:20;;;;;;;19.60;6.88;;;;;;;;;;4808620;29;20054;-73
2020/12/16 07:34:48;;;;;;;16.95;6.03;;;;;;;;;;4807518;29;20488;-74
2020/12/16 07:37:15;;;;;;;20.50;7.03;;;;;;;;;;4808636;29;20054;-75
2020/12/16 07:39:49;;;;;;;24.33;8.05;;;;;;;;;;4808561;29;20118;-76
2020/12/16 07:42:25;;;;;;;21.40;7.72;;;;;;;;;;4807465;29;20489;-74
2020/12/16 07:44:52;;;;;;;41.92;13.27;;;;;;;;;;4808044;29;20438;-74
2020/12/16 07:47:18;;;;;;;27.85;10.35;;;;;;;;;;4807743;29;20071;-75
2020/12/16 07:49:45;;;;;;;33.22;10.27;;;;;;;;;;4806498;29;20080;-75
2020/12/16 07:52:11;;;;;;;28.13;10.23;;;;;;;;;;4806719;29;20434;-75
2020/12/16 07:54:37;;;;;;;24.08;8.90;;;;;;;;;;4807306;29;20440;-75
2020/12/16 07:57:04;;;;;;;22.73;7.82;;;;;;;;;;4806823;29;20477;-81
2020/12/16 07:59:31;;;;;;;22.23;8.55;;;;;;;;;;4808487;29;20070;-83
2020/12/16 08:02:15;;;;;;;19.33;6.45;;;;;;;;;;4806951;29;20541;-85
2020/12/16 08:04:45;;;;;;;20.23;6.47;;;;;;;;;;4804844;29;20161;-85
2020/12/16 08:07:12;;;;;;;20.00;6.97;;;;;;;;;;4808090;29;20107;-83
2020/12/16 08:09:38;;;;;;;17.38;6.55;;;;;;;;;;4807809;29;20039;-83
2020/12/16 08:12:04;;;;;;;19.88;7.15;;;;;;;;;;4806573;29;20034;-80
2020/12/16 08:14:31;;;;;;;18.65;6.30;;;;;;;;;;4806630;29;20034;-78
2020/12/16 08:17:09;;;;;;;20.65;7.53;;;;;;;;;;4806922;29;20066;-80
2020/12/16 08:19:35;;;;;;;23.00;7.35;;;;;;;;;;4822188;29;20426;-80
2020/12/16 08:22:11;;;;;;;21.77;7.55;;;;;;;;;;4826133;29;20068;-82
2020/12/16 08:24:37;;;;;;;19.75;6.20;;;;;;;;;;4824741;29;20042;-77
2020/12/16 08:27:03;;;;;;;26.45;9.52;;;;;;;;;;4824628;29;20042;-82
2020/12/16 08:29:29;;;;;;;17.25;6.88;;;;;;;;;;4824629;29;20058;-79
2020/12/16 08:31:56;;;;;;;17.42;6.53;;;;;;;;;;4824630;29;20038;-80
2020/12/16 08:34:24;;;;;;;17.60;7.07;;;;;;;;;;4825719;29;20038;-80
2020/12/16 08:36:51;;;;;;;18.27;6.45;;;;;;;;;;4825791;29;20030;-78
2020/12/16 08:39:24;;;;;;;17.63;7.35;;;;;;;;;;4824538;29;20041;-78
2020/12/16 08:41:53;;;;;;;22.83;6.43;;;;;;;;;;4824369;29;20038;-80
2020/12/16 08:44:23;;;;;;;16.38;5.75;;;;;;;;;;4808205;29;20045;-80
2020/12/16 08:46:50;;;;;;;20.35;6.82;;;;;;;;;;4807553;29;20042;-80
2020/12/16 08:49:16;;;;;;;16.58;6.47;;;;;;;;;;4813678;29;20142;-81
2020/12/16 08:51:45;;;;;;;18.70;6.35;;;;;;;;;;4824450;29;20064;-82
2020/12/16 08:54:16;;;;;;;14.57;5.13;;;;;;;;;;4824098;29;20121;-84
2020/12/16 08:56:43;;;;;;;19.95;6.45;;;;;;;;;;4806939;29;20489;-78
2020/12/16 08:59:16;;;;;;;14.23;6.05;;;;;;;;;;4805993;29;20481;-77
2020/12/16 09:01:47;;;;;;;20.42;6.95;;;;;;;;;;4815030;29;20361;-77
2020/12/16 09:04:27;;;;;;;20.67;6.30;;;;;;;;;;4812688;29;20046;-77
2020/12/16 09:07:04;;;;;;;21.10;6.18;;;;;;;;;;4807015;29;20083;-76
2020/12/16 09:09:31;;;;;;;19.20;6.85;;;;;;;;;;4806028;29;20035;-77
2020/12/16 09:11:57;;;;;;;17.52;5.47;;;;;;;;;;4805855;29;20092;-76
2020/12/16 09:14:24;;;;;;;16.33;6.00;;;;;;;;;;4806809;29;20031;-78
2020/12/16 09:16:50;;;;;;;20.42;6.57;;;;;;;;;;4805232;29;20031;-77
2020/12/16 09:19:24;;;;;;;17.58;5.90;;;;;;;;;;4806953;29;20039;-76
2020/12/16 09:21:51;;;;;;;21.00;7.50;;;;;;;;;;4805625;29;20074;-81
2020/12/16 09:24:21;;;;;;;19.48;6.15;;;;;;;;;;4805364;29;20031;-76
2020/12/16 09:26:47;;;;;;;14.82;6.22;;;;;;;;;;4805617;29;20042;-77
2020/12/16 09:29:14;;;;;;;15.07;5.47;;;;;;;;;;4805443;29;20077;-78
2020/12/16 09:31:40;;;;;;;23.25;7.82;;;;;;;;;;4805264;29;20050;-77
2020/12/16 09:34:07;;;;;;;19.25;6.60;;;;;;;;;;4805379;29;20031;-76
2020/12/16 09:36:33;;;;;;;15.38;5.93;;;;;;;;;;4806674;29;20039;-76
2020/12/16 09:39:04;;;;;;;17.15;5.65;;;;;;;;;;4821739;29;20081;-76
2020/12/16 09:41:51;;;;;;;15.23;5.25;;;;;;;;;;4824683;29;20050;-76
2020/12/16 09:44:30;;;;;;;14.38;4.97;;;;;;;;;;4824696;29;20062;-78
2020/12/16 09:47:15;;;;;;;12.98;5.57;;;;;;;;;;4823655;29;20037;-78
2020/12/16 09:49:42;;;;;;;13.20;5.07;;;;;;;;;;4837002;29;20058;-77
2020/12/16 09:52:24;;;;;;;15.07;5.32;;;;;;;;;;4826415;29;20200;-83
2020/12/16 09:54:50;;;;;;;16.95;5.22;;;;;;;;;;4826343;29;20124;-77
2020/12/16 09:57:16;;;;;;;14.25;5.13;;;;;;;;;;4826382;29;20034;-79
2020/12/16 09:59:42;;;;;;;11.85;4.55;;;;;;;;;;4826024;29;20038;-78
2020/12/16 10:02:08;;;;;;;14.93;5.38;;;;;;;;;;4826314;29;20385;-76
2020/12/16 10:04:34;;;;;;;15.93;5.15;;;;;;;;;;4842585;29;20052;-76
2020/12/16 10:07:00;;;;;;;14.48;5.10;;;;;;;;;;4826330;29;20121;-77
2020/12/16 10:09:26;;;;;;;16.20;4.78;;;;;;;;;;4826318;29;20029;-78
2020/12/16 10:11:52;;;;;;;12.75;4.70;;;;;;;;;;4826049;29;20030;-78
2020/12/16 10:14:19;;;;;;;12.38;4.45;;;;;;;;;;4826062;29;20487;-76
2020/12/16 10:16:46;;;;;;;12.60;4.95;;;;;;;;;;4826098;29;20026;-77
2020/12/16 10:19:12;;;;;;;12.32;4.85;;;;;;;;;;4826104;29;20030;-75
2020/12/16 10:21:39;;;;;;;13.52;4.93;;;;;;;;;;4826066;29;20034;-77
2020/12/16 10:24:05;;;;;;;10.75;4.28;;;;;;;;;;4842330;29;20030;-77
2020/12/16 10:26:31;;;;;;;14.07;5.60;;;;;;;;;;4841919;29;20441;-76
2020/12/16 10:28:57;;;;;;;11.77;4.30;;;;;;;;;;4825950;29;20097;-77
2020/12/16 10:31:24;;;;;;;14.10;4.78;;;;;;;;;;4826110;29;20034;-77
2020/12/16 10:33:50;;;;;;;14.82;4.75;;;;;;;;;;4825987;29;20030;-76
2020/12/16 10:36:16;;;;;;;16.13;6.07;;;;;;;;;;4825687;29;20044;-77
2020/12/16 10:38:42;;;;;;;14.48;5.72;;;;;;;;;;4812857;29;20117;-77
2020/12/16 10:41:08;;;;;;;20.80;5.80;;;;;;;;;;4807686;29;20068;-81
2020/12/16 10:43:34;;;;;;;13.85;5.30;;;;;;;;;;4823073;29;20034;-79
2020/12/16 10:46:01;;;;;;;13.68;4.53;;;;;;;;;;4807424;29;20485;-74
2020/12/16 10:48:27;;;;;;;12.45;4.95;;;;;;;;;;4823872;29;20515;-75
2020/12/16 10:50:53;;;;;;;14.50;5.00;;;;;;;;;;4807506;29;20133;-76
2020/12/16 10:53:19;;;;;;;17.45;5.00;;;;;;;;;;4807475;29;20027;-76
2020/12/16 10:55:46;;;;;;;16.77;6.13;;;;;;;;;;4808607;29;20034;-76
2020/12/16 10:58:12;;;;;;;11.23;4.95;;;;;;;;;;4807111;29;20042;-81
2020/12/16 11:00:38;;;;;;;13.73;5.22;;;;;;;;;;4807502;29;20497;-79
2020/12/16 11:03:04;;;;;;;14.10;5.25;;;;;;;;;;4823836;29;20109;-76
2020/12/16 11:05:30;;;;;;;13.35;4.82;;;;;;;;;;4807406;29;20046;-77
2020/12/16 11:07:56;;;;;;;13.07;4.75;;;;;;;;;;4807020;29;20030;-80
2020/12/16 11:10:22;;;;;;;15.48;5.75;;;;;;;;;;4807365;29;20030;-75
2020/12/16 11:12:48;;;;;;;13.35;5.07;;;;;;;;;;4807257;29;20034;-77
2020/12/16 11:15:15;;;;;;;14.90;5.70;;;;;;;;;;4807262;29;20106;-75
2020/12/16 11:17:41;;;;;;;13.90;4.82;;;;;;;;;;4823949;29;20077;-76
2020/12/16 11:20:07;;;;;;;15.65;4.95;;;;;;;;;;4807185;29;20034;-77
2020/12/16 11:22:37;;;;;;;11.52;4.85;;;;;;;;;;4807099;29;20061;-80
2020/12/16 11:25:04;;;;;;;11.20;4.75;;;;;;;;;;4807123;29;20038;-76
2020/12/16 11:27:30;;;;;;;11.73;4.65;;;;;;;;;;4807221;29;20030;-76
2020/12/16 11:29:56;;;;;;;10.90;4.63;;;;;;;;;;4807135;29;20411;-76
2020/12/16 11:32:23;;;;;;;11.52;4.72;;;;;;;;;;4823551;29;20026;-77
2020/12/16 11:34:49;;;;;;;15.63;5.22;;;;;;;;;;4806915;29;20396;-76
2020/12/16 11:37:15;;;;;;;13.10;5.32;;;;;;;;;;4811788;29;20385;-77
2020/12/16 11:39:42;;;;;;;12.10;4.78;;;;;;;;;;4844292;29;20026;-76
2020/12/16 11:42:08;;;;;;;15.43;5.80;;;;;;;;;;4828533;29;20175;-77
2020/12/16 11:44:35;;;;;;;13.40;5.28;;;;;;;;;;4828310;29;20038;-77
2020/12/16 11:47:03;;;;;;;13.38;5.30;;;;;;;;;;4828273;29;20037;-75
2020/12/16 11:49:29;;;;;;;13.02;5.47;;;;;;;;;;4844815;29;20057;-76
2020/12/16 11:51:56;;;;;;;15.95;6.03;;;;;;;;;;4828097;29;20468;-76
2020/12/16 11:54:22;;;;;;;14.85;5.47;;;;;;;;;;4844883;29;20090;-79
2020/12/16 11:56:49;;;;;;;13.32;5.60;;;;;;;;;;4828327;29;20052;-77
2020/12/16 11:59:15;;;;;;;16.73;5.18;;;;;;;;;;4828150;29;20037;-78
2020/12/16 12:01:42;;;;;;;11.55;4.47;;;;;;;;;;4828045;29;20048;-84
2020/12/16 12:04:08;;;;;;;12.48;4.82;;;;;;;;;;4827890;29;20046;-75
2020/12/16 12:06:35;;;;;;;13.50;4.80;;;;;;;;;;4828050;29;20109;-77
2020/12/16 12:09:01;;;;;;;15.52;5.28;;;;;;;;;;4827942;29;20104;-77
2020/12/16 12:11:27;;;;;;;14.38;5.35;;;;;;;;;;4828157;29;20113;-76
2020/12/16 12:13:53;;;;;;;13.75;4.88;;;;;;;;;;4844473;29;20500;-76
2020/12/16 12:16:19;;;;;;;12.60;5.38;;;;;;;;;;4844254;29;20030;-77
2020/12/16 12:18:45;;;;;;;12.52;4.65;;;;;;;;;;4827924;29;20030;-77
2020/12/16 12:21:15;;;;;;;13.82;5.20;;;;;;;;;;4844038;29;20030;-76
2020/12/16 12:23:41;;;;;;;10.98;4.68;;;;;;;;;;4827798;29;20057;-76
2020/12/16 12:26:07;;;;;;;15.15;5.20;;;;;;;;;;4827677;29;20114;-76
2020/12/16 12:28:34;;;;;;;12.15;5.35;;;;;;;;;;4827760;29;20030;-76
2020/12/16 12:31:00;;;;;;;16.15;5.13;;;;;;;;;;4844329;29;20045;-77
2020/12/16 12:33:26;;;;;;;15.35;5.75;;;;;;;;;;4827472;29;20030;-76
2020/12/16 12:35:52;;;;;;;16.10;5.70;;;;;;;;;;4820400;29;20485;-77
2020/12/16 12:38:18;;;;;;;11.95;5.10;;;;;;;;;;4821925;29;20030;-76
2020/12/16 12:40:44;;;;;;;12.52;4.97;;;;;;;;;;4827539;29;20396;-77
2020/12/16 12:43:11;;;;;;;15.82;5.68;;;;;;;;;;4827614;29;20487;-76
2020/12/16 12:45:37;;;;;;;15.02;5.82;;;;;;;;;;4843950;29;20045;-76
2020/12/16 12:48:03;;;;;;;16.38;6.05;;;;;;;;;;4827291;29;20038;-78
2020/12/16 12:50:29;;;;;;;16.45;5.25;;;;;;;;;;4826376;29;20098;-75
2020/12/16 12:52:55;;;;;;;17.60;6.40;;;;;;;;;;4843621;29;20026;-77
2020/12/16 12:55:22;;;;;;;18.45;6.28;;;;;;;;;;4827315;29;20026;-77
2020/12/16 12:57:48;;;;;;;15.23;6.25;;;;;;;;;;4827207;29;20488;-77
2020/12/16 13:00:15;;;;;;;16.95;6.35;;;;;;;;;;4843570;29;20057;-76
2020/12/16 13:02:41;;;;;;;22.17;6.68;;;;;;;;;;4827151;29;20042;-77
2020/12/16 13:05:08;;;;;;;14.30;5.72;;;;;;;;;;4843682;29;20042;-76
2020/12/16 13:07:35;;;;;;;16.73;5.38;;;;;;;;;;4843633;29;20101;-81
2020/12/16 13:10:01;;;;;;;16.70;5.88;;;;;;;;;;4822451;29;20050;-76
2020/12/16 13:12:27;;;;;;;15.15;5.47;;;;;;;;;;4824238;29;20505;-77
2020/12/16 13:14:53;;;;;;;14.27;5.55;;;;;;;;;;4808945;29;20034;-76
2020/12/16 13:17:22;;;;;;;16.38;5.47;;;;;;;;;;4825198;29;20113;-78
2020/12/16 13:19:49;;;;;;;20.20;6.90;;;;;;;;;;4808899;29;20042;-77
2020/12/16 13:22:18;;;;;;;18.83;7.15;;;;;;;;;;4808626;29;20034;-78
2020/12/16 13:24:44;;;;;;;16.65;6.78;;;;;;;;;;4808649;29;20038;-77
2020/12/16 13:27:11;;;;;;;18.35;5.78;;;;;;;;;;4808422;29;20553;-78
2020/12/16 13:29:37;;;;;;;16.38;6.47;;;;;;;;;;4825128;29;20060;-76
2020/12/16 13:32:03;;;;;;;15.60;5.82;;;;;;;;;;4808712;29;20489;-76
2020/12/16 13:34:29;;;;;;;18.73;6.05;;;;;;;;;;4808618;29;20122;-76
2020/12/16 13:36:55;;;;;;;15.18;5.88;;;;;;;;;;4808285;29;20129;-77
2020/12/16 13:39:21;;;;;;;21.50;7.88;;;;;;;;;;4808431;29;20026;-76
2020/12/16 13:41:48;;;;;;;17.73;6.30;;;;;;;;;;4808376;29;20034;-80
2020/12/16 13:44:14;;;;;;;16.42;6.15;;;;;;;;;;4808183;29;20114;-81
2020/12/16 13:46:40;;;;;;;13.98;5.15;;;;;;;;;;4808312;29;20041;-76
2020/12/16 13:49:06;;;;;;;19.00;6.50;;;;;;;;;;4824674;29;20419;-79
2020/12/16 13:51:33;;;;;;;15.82;5.72;;;;;;;;;;4824693;29;20033;-76
2020/12/16 13:53:59;;;;;;;16.80;6.35;;;;;;;;;;4824694;29;20549;-77
2020/12/16 13:56:27;;;;;;;18.33;6.00;;;;;;;;;;4808223;29;20404;-77
2020/12/16 13:58:55;;;;;;;19.65;5.90;;;;;;;;;;4824542;29;20062;-76
2020/12/16 14:01:24;;;;;;;17.75;6.75;;;;;;;;;;4824250;29;20030;-76
2020/12/16 14:03:50;;;;;;;15.40;4.90;;;;;;;;;;4807715;29;20098;-75
2020/12/16 14:06:16;;;;;;;13.75;5.25;;;;;;;;;;4818223;29;20042;-75
2020/12/16 14:08:42;;;;;;;16.20;6.18;;;;;;;;;;4842561;29;20070;-76
2020/12/16 14:11:12;;;;;;;15.45;6.15;;;;;;;;;;4826193;29;20551;-75
2020/12/16 14:13:40;;;;;;;15.48;5.60;;;;;;;;;;4825931;29;20132;-75
2020/12/16 14:16:09;;;;;;;15.60;7.05;;;;;;;;;;4842554;29;20034;-77
2020/12/16 14:18:35;;;;;;;21.35;6.82;;;;;;;;;;4826053;29;20053;-76
2020/12/16 14:21:03;;;;;;;16.98;6.85;;;;;;;;;;4825950;29;20034;-81
2020/12/16 14:23:38;;;;;;;21.30;6.88;;;;;;;;;;4842279;29;20041;-76
2020/12/16 14:26:10;;;;;;;18.58;7.05;;;;;;;;;;4842140;29;20043;-76
2020/12/16 14:28:36;;;;;;;22.67;7.15;;;;;;;;;;4825636;29;20094;-75
2020/12/16 14:31:02;;;;;;;15.02;5.97;;;;;;;;;;4825610;29;20552;-75